createdAt,value
2024-02-03T00:00:02.626Z,9.358546
2024-02-03T00:01:02.749Z,9.358557
2024-02-03T00:02:02.631Z,9.358525
2024-02-03T00:03:02.603Z,9.358577
2024-02-03T00:04:02.746Z,9.358592
2024-02-03T00:05:02.586Z,9.358645
2024-02-03T00:06:02.594Z,9.358652
2024-02-03T00:07:02.651Z,9.358635
2024-02-03T00:08:02.555Z,9.358577
2024-02-03T00:09:02.543Z,9.358603
2024-02-03T00:10:02.534Z,9.358574
2024-02-03T00:11:02.534Z,9.358551
2024-02-03T00:12:02.495Z,9.358541
2024-02-03T00:13:02.520Z,9.358592
2024-02-03T00:14:02.469Z,9.358532
2024-02-03T00:15:02.468Z,9.358551
2024-02-03T00:16:02.468Z,9.358593
2024-02-03T00:17:02.480Z,9.358590
2024-02-03T00:18:02.448Z,9.358559
2024-02-03T00:19:02.501Z,9.358504
2024-02-03T00:20:02.408Z,9.358502
2024-02-03T00:21:02.429Z,9.358525
2024-02-03T00:22:02.403Z,9.358541
2024-02-03T00:23:02.401Z,9.358563
2024-02-03T00:24:02.406Z,9.358590
2024-02-03T00:25:02.392Z,9.358536
2024-02-03T00:26:02.428Z,9.358534
2024-02-03T00:27:03.464Z,9.358538
2024-02-03T00:28:02.350Z,9.358522
2024-02-03T00:29:02.314Z,9.358545
2024-02-03T00:30:02.305Z,9.358599
2024-02-03T00:31:03.312Z,9.358587
2024-02-03T00:32:02.291Z,9.358509
2024-02-03T00:33:02.428Z,9.358566
2024-02-03T00:34:02.352Z,9.358493
2024-02-03T00:35:02.253Z,9.358524
2024-02-03T00:36:02.299Z,9.358585
2024-02-03T00:37:02.226Z,9.358575
2024-02-03T00:38:02.228Z,9.358560
2024-02-03T00:39:02.794Z,9.358560
2024-02-03T00:40:03.196Z,9.358577
2024-02-03T00:41:02.176Z,9.358574
2024-02-03T00:42:02.294Z,9.358570
2024-02-03T00:43:02.201Z,9.358566
2024-02-03T00:44:02.191Z,9.358546
2024-02-03T00:45:02.265Z,9.358509
2024-02-03T00:46:02.198Z,9.358494
2024-02-03T00:47:02.207Z,9.358580
2024-02-03T00:48:02.214Z,9.358564
2024-02-03T00:49:02.188Z,9.358546
2024-02-03T00:50:02.195Z,9.358508
2024-02-03T00:51:02.208Z,9.358560
2024-02-03T00:52:02.125Z,9.358549
2024-02-03T00:53:02.098Z,9.358539
2024-02-03T00:54:02.100Z,9.358570
2024-02-03T00:55:02.123Z,9.358579
2024-02-03T00:56:02.074Z,9.358570
2024-02-03T00:57:02.102Z,9.358598
2024-02-03T00:58:02.111Z,9.358511
2024-02-03T00:59:02.172Z,9.358561
2024-02-03T01:00:02.073Z,9.358566
2024-02-03T01:01:02.070Z,9.358585
2024-02-03T01:02:01.975Z,9.358603
2024-02-03T01:03:01.979Z,9.358612
2024-02-03T01:04:02.199Z,9.358683
2024-02-03T01:05:01.956Z,9.358657
2024-02-03T01:06:02.054Z,9.358621
2024-02-03T01:07:02.001Z,9.358621
2024-02-03T01:08:01.902Z,9.358666
2024-02-03T01:09:01.927Z,9.358680
2024-02-03T01:10:01.902Z,9.358665
2024-02-03T01:11:01.883Z,9.358632
2024-02-03T01:12:01.878Z,9.358620
2024-02-03T01:13:01.929Z,9.358599
2024-02-03T01:14:01.865Z,9.358588
2024-02-03T01:15:01.854Z,9.358591
2024-02-03T01:16:01.835Z,9.358610
2024-02-03T01:17:01.817Z,9.358617
2024-02-03T01:18:01.868Z,9.358672
2024-02-03T01:19:01.830Z,9.358632
2024-02-03T01:20:01.793Z,9.358608
2024-02-03T01:21:01.775Z,9.358606
2024-02-03T01:22:01.788Z,9.358574
2024-02-03T01:23:01.748Z,9.358529
2024-02-03T01:24:01.753Z,9.358521
2024-02-03T01:25:01.763Z,9.358520
2024-02-03T01:26:01.748Z,9.358570
2024-02-03T01:27:01.741Z,9.358629
2024-02-03T01:28:01.717Z,9.358639
2024-02-03T01:29:01.695Z,9.358624
2024-02-03T01:30:01.706Z,9.358611
2024-02-03T01:31:01.685Z,9.358632
2024-02-03T01:32:01.658Z,9.358582
2024-02-03T01:33:01.679Z,9.358586
2024-02-03T01:34:01.697Z,9.358603
2024-02-03T01:35:01.707Z,9.358580
2024-02-03T01:36:01.630Z,9.358537
2024-02-03T01:37:01.611Z,9.358501
2024-02-03T01:38:01.586Z,9.358552
2024-02-03T01:39:01.589Z,9.358543
2024-02-03T01:40:01.586Z,9.358529
2024-02-03T01:41:01.581Z,9.358592
2024-02-03T01:42:01.557Z,9.358549
2024-02-03T01:43:01.534Z,9.358589
2024-02-03T01:44:01.531Z,9.358569
2024-02-03T01:45:01.529Z,9.358516
2024-02-03T01:46:01.518Z,9.358517
2024-02-03T01:47:01.501Z,9.358512
2024-02-03T01:48:01.510Z,9.358516
2024-02-03T01:49:01.527Z,9.358595
2024-02-03T01:50:01.472Z,9.358561
2024-02-03T01:51:01.501Z,9.358537
2024-02-03T01:52:01.436Z,9.358532
2024-02-03T01:53:01.425Z,9.358531
2024-02-03T01:54:01.431Z,9.358560
2024-02-03T01:55:01.437Z,9.358554
2024-02-03T01:56:01.407Z,9.358559
2024-02-03T01:57:01.397Z,9.358522
2024-02-03T01:58:01.395Z,9.358502
2024-02-03T01:59:01.363Z,9.358546
2024-02-03T02:00:01.399Z,9.358513
2024-02-03T02:01:01.477Z,9.358503
2024-02-03T02:02:01.353Z,9.358573
2024-02-03T02:03:01.376Z,9.358545
2024-02-03T02:04:01.344Z,9.358540
2024-02-03T02:05:01.303Z,9.358605
2024-02-03T02:06:01.326Z,9.358619
2024-02-03T02:07:02.367Z,9.358562
2024-02-03T02:08:01.274Z,9.358640
2024-02-03T02:09:01.284Z,9.358627
2024-02-03T02:10:01.237Z,9.358602
2024-02-03T02:11:01.228Z,9.358593
2024-02-03T02:12:01.271Z,9.358628
2024-02-03T02:13:01.213Z,9.358622
2024-02-03T02:14:01.208Z,9.358586
2024-02-03T02:15:01.204Z,9.358541
2024-02-03T02:16:01.220Z,9.358605
2024-02-03T02:17:01.187Z,9.358653
2024-02-03T02:18:01.243Z,9.358600
2024-02-03T02:19:01.219Z,9.358622
2024-02-03T02:20:01.220Z,9.358529
2024-02-03T02:21:01.160Z,9.358560
2024-02-03T02:22:01.108Z,9.358534
2024-02-03T02:23:01.112Z,9.358548
2024-02-03T02:24:01.114Z,9.358541
2024-02-03T02:25:01.114Z,9.358564
2024-02-03T02:26:01.096Z,9.358582
2024-02-03T02:27:01.140Z,9.358456
2024-02-03T02:28:01.164Z,9.358473
2024-02-03T02:29:01.039Z,9.358459
2024-02-03T02:30:01.057Z,9.358522
2024-02-03T02:31:01.032Z,9.358519
2024-02-03T02:32:01.027Z,9.358607
2024-02-03T02:33:01.087Z,9.358560
2024-02-03T02:34:01.050Z,9.358575
2024-02-03T02:35:01.011Z,9.358623
2024-02-03T02:36:00.996Z,9.358558
2024-02-03T02:37:00.959Z,9.358637
2024-02-03T02:38:00.952Z,9.358563
2024-02-03T02:39:00.940Z,9.358546
2024-02-03T02:40:01.044Z,9.358585
2024-02-03T02:41:00.932Z,9.358561
2024-02-03T02:42:00.918Z,9.358497
2024-02-03T02:43:00.904Z,9.358492
2024-02-03T02:44:00.891Z,9.358523
2024-02-03T02:45:00.886Z,9.358586
2024-02-03T02:46:00.862Z,9.358645
2024-02-03T02:47:00.854Z,9.358512
2024-02-03T02:48:00.974Z,9.358490
2024-02-03T02:49:00.940Z,9.358452
2024-02-03T02:50:00.889Z,9.358482
2024-02-03T02:51:00.800Z,9.358528
2024-02-03T02:52:00.814Z,9.358483
2024-02-03T02:53:00.818Z,9.358414
2024-02-03T02:54:00.784Z,9.358430
2024-02-03T02:55:00.785Z,9.358536
2024-02-03T02:56:01.480Z,9.358565
2024-02-03T02:57:01.762Z,9.358596
2024-02-03T02:58:00.756Z,9.358498
2024-02-03T02:59:00.726Z,9.358595
2024-02-03T03:00:00.753Z,9.358665
2024-02-03T03:01:00.842Z,9.358644
2024-02-03T03:02:00.712Z,9.358602
2024-02-03T03:03:00.737Z,9.358584
2024-02-03T03:04:00.801Z,9.358512
2024-02-03T03:05:00.670Z,9.358489
2024-02-03T03:06:00.664Z,9.358449
2024-02-03T03:07:00.662Z,9.358463
2024-02-03T03:08:00.688Z,9.358542
2024-02-03T03:09:00.644Z,9.358579
2024-02-03T03:10:00.627Z,9.358545
2024-02-03T03:11:00.609Z,9.358498
2024-02-03T03:12:00.634Z,9.358534
2024-02-03T03:13:00.593Z,9.358561
2024-02-03T03:14:00.578Z,9.358464
2024-02-03T03:15:00.577Z,9.358485
2024-02-03T03:16:00.553Z,9.358542
2024-02-03T03:17:00.574Z,9.358612
2024-02-03T03:18:00.615Z,9.358561
2024-02-03T03:19:00.675Z,9.358575
2024-02-03T03:20:00.590Z,9.358554
2024-02-03T03:21:00.502Z,9.358617
2024-02-03T03:22:00.503Z,9.358766
2024-02-03T03:23:00.485Z,9.358630
2024-02-03T03:24:00.573Z,9.358644
2024-02-03T03:25:00.474Z,9.358724
2024-02-03T03:26:00.475Z,9.358680
2024-02-03T03:27:00.461Z,9.358602
2024-02-03T03:28:00.518Z,9.358541
2024-02-03T03:29:00.446Z,9.358541
2024-02-03T03:30:00.410Z,9.358508
2024-02-03T03:31:00.447Z,9.358523
2024-02-03T03:32:00.428Z,9.358603
2024-02-03T03:33:00.402Z,9.358715
2024-02-03T03:34:00.534Z,9.358635
2024-02-03T03:35:00.418Z,9.358546
2024-02-03T03:36:00.372Z,9.358605
2024-02-03T03:37:00.348Z,9.358583
2024-02-03T03:38:00.335Z,9.358534
2024-02-03T03:39:00.361Z,9.358559
2024-02-03T03:40:00.326Z,9.358628
2024-02-03T03:41:00.309Z,9.358644
2024-02-03T03:42:00.307Z,9.358666
2024-02-03T03:43:00.267Z,9.358588
2024-02-03T03:44:00.320Z,9.358573
2024-02-03T03:45:00.280Z,9.358508
2024-02-03T03:46:00.281Z,9.358623
2024-02-03T03:47:00.227Z,9.358599
2024-02-03T03:48:00.272Z,9.358565
2024-02-03T03:49:00.274Z,9.358567
2024-02-03T03:50:00.384Z,9.358611
2024-02-03T03:51:00.209Z,9.358581
2024-02-03T03:52:00.189Z,9.358617
2024-02-03T03:53:00.200Z,9.358577
2024-02-03T03:54:00.172Z,9.358623
2024-02-03T03:55:00.243Z,9.358627
2024-02-03T03:56:00.143Z,9.358630
2024-02-03T03:57:00.169Z,9.358635
2024-02-03T03:58:00.154Z,9.358669
2024-02-03T03:59:00.119Z,9.358668
2024-02-03T04:00:00.199Z,9.358625
2024-02-03T04:01:00.210Z,9.358566
2024-02-03T04:02:00.076Z,9.358656
2024-02-03T04:03:00.074Z,9.358646
2024-02-03T04:04:00.132Z,9.358590
2024-02-03T04:05:00.052Z,9.358529
2024-02-03T04:06:00.152Z,9.358537
2024-02-03T04:07:00.065Z,9.358494
2024-02-03T04:08:00.023Z,9.358521
2024-02-03T04:09:00.042Z,9.358524
2024-02-03T04:10:00.022Z,9.358526
2024-02-03T04:10:59.985Z,9.358551
2024-02-03T04:11:59.972Z,9.358623
2024-02-03T04:12:59.988Z,9.358638
2024-02-03T04:13:59.975Z,9.358558
2024-02-03T04:14:59.984Z,9.358562
2024-02-03T04:15:59.962Z,9.358544
2024-02-03T04:16:59.944Z,9.358547
2024-02-03T04:17:59.941Z,9.358556
2024-02-03T04:18:59.950Z,9.358604
2024-02-03T04:20:00.141Z,9.358623
2024-02-03T04:20:59.873Z,9.358622
2024-02-03T04:21:59.871Z,9.358610
2024-02-03T04:22:59.883Z,9.358631
2024-02-03T04:23:59.845Z,9.358596
2024-02-03T04:24:59.863Z,9.358504
2024-02-03T04:25:59.847Z,9.358507
2024-02-03T04:26:59.814Z,9.358524
2024-02-03T04:27:59.802Z,9.358516
2024-02-03T04:28:59.801Z,9.358514
2024-02-03T04:29:59.793Z,9.358555
2024-02-03T04:31:00.815Z,9.358599
2024-02-03T04:31:59.773Z,9.358611
2024-02-03T04:33:00.891Z,9.358611
2024-02-03T04:33:59.790Z,9.358546
2024-02-03T04:34:59.727Z,9.358522
2024-02-03T04:35:59.727Z,9.358477
2024-02-03T04:36:59.729Z,9.358555
2024-02-03T04:37:59.701Z,9.358570
2024-02-03T04:38:59.694Z,9.358530
2024-02-03T04:39:59.689Z,9.358536
2024-02-03T04:40:59.706Z,9.358530
2024-02-03T04:41:59.645Z,9.358606
2024-02-03T04:42:59.647Z,9.358603
2024-02-03T04:43:59.658Z,9.358597
2024-02-03T04:44:59.636Z,9.358585
2024-02-03T04:45:59.696Z,9.358579
2024-02-03T04:46:59.642Z,9.358523
2024-02-03T04:47:59.674Z,9.358528
2024-02-03T04:48:59.665Z,9.358602
2024-02-03T04:49:59.736Z,9.358585
2024-02-03T04:50:59.593Z,9.358565
2024-02-03T04:51:59.623Z,9.358545
2024-02-03T04:52:59.545Z,9.358577
2024-02-03T04:53:59.532Z,9.358525
2024-02-03T04:54:59.548Z,9.358484
2024-02-03T04:55:59.543Z,9.358473
2024-02-03T04:56:59.503Z,9.358493
2024-02-03T04:57:59.524Z,9.358491
2024-02-03T04:58:59.498Z,9.358523
2024-02-03T04:59:59.473Z,9.358591
2024-02-03T05:00:59.603Z,9.358586
2024-02-03T05:01:59.470Z,9.358497
2024-02-03T05:02:59.496Z,9.358507
2024-02-03T05:03:59.464Z,9.358478
2024-02-03T05:04:59.516Z,9.358535
2024-02-03T05:05:59.432Z,9.358607
2024-02-03T05:06:59.403Z,9.358705
2024-02-03T05:07:59.406Z,9.358652
2024-02-03T05:08:59.364Z,9.358601
2024-02-03T05:09:59.373Z,9.358579
2024-02-03T05:10:59.355Z,9.358601
2024-02-03T05:11:59.346Z,9.358624
2024-02-03T05:12:59.377Z,9.358583
2024-02-03T05:13:59.318Z,9.358617
2024-02-03T05:15:00.560Z,9.358562
2024-02-03T05:15:59.307Z,9.358589
2024-02-03T05:16:59.308Z,9.358588
2024-02-03T05:17:59.351Z,9.358552
2024-02-03T05:18:59.351Z,9.358573
2024-02-03T05:19:59.259Z,9.358585
2024-02-03T05:20:59.248Z,9.358555
2024-02-03T05:21:59.275Z,9.358604
2024-02-03T05:22:59.236Z,9.358591
2024-02-03T05:24:31.164Z,9.358574
2024-02-03T05:24:59.312Z,9.358534
2024-02-03T05:25:59.193Z,9.358537
2024-02-03T05:26:59.161Z,9.358523
2024-02-03T05:28:00.198Z,9.358550
2024-02-03T05:28:59.172Z,9.358584
2024-02-03T05:29:59.192Z,9.358541
2024-02-03T05:30:59.175Z,9.358543
2024-02-03T05:31:59.141Z,9.358556
2024-02-03T05:32:59.141Z,9.358539
2024-02-03T05:33:59.196Z,9.358580
2024-02-03T05:34:59.121Z,9.358597
2024-02-03T05:35:59.113Z,9.358595
2024-02-03T05:36:59.080Z,9.358588
2024-02-03T05:37:59.079Z,9.358650
2024-02-03T05:38:59.106Z,9.358594
2024-02-03T05:39:59.137Z,9.358554
2024-02-03T05:40:59.041Z,9.358568
2024-02-03T05:41:59.012Z,9.358562
2024-02-03T05:43:00.014Z,9.358553
2024-02-03T05:43:58.980Z,9.358578
2024-02-03T05:44:59.006Z,9.358583
2024-02-03T05:45:58.989Z,9.358603
2024-02-03T05:46:58.975Z,9.358582
2024-02-03T05:47:58.956Z,9.358582
2024-02-03T05:48:59.017Z,9.358581
2024-02-03T05:49:58.998Z,9.358588
2024-02-03T05:50:58.917Z,9.358610
2024-02-03T05:51:58.963Z,9.358595
2024-02-03T05:52:58.940Z,9.358567
2024-02-03T05:53:58.894Z,9.358521
2024-02-03T05:54:58.860Z,9.358504
2024-02-03T05:55:58.914Z,9.358528
2024-02-03T05:56:58.848Z,9.358581
2024-02-03T05:57:58.914Z,9.358530
2024-02-03T05:59:13.935Z,9.358568
2024-02-03T06:00:00.846Z,9.358562
2024-02-03T06:00:58.923Z,9.358555
2024-02-03T06:02:01.325Z,9.358485
2024-02-03T06:02:58.822Z,9.358498
2024-02-03T06:03:58.829Z,9.358526
2024-02-03T06:04:58.886Z,9.358540
2024-02-03T06:06:13.240Z,9.358551
2024-02-03T06:07:00.861Z,9.358558
2024-02-03T06:07:58.889Z,9.358581
2024-02-03T06:08:58.762Z,9.358699
2024-02-03T06:09:58.824Z,9.358664
2024-02-03T06:10:58.741Z,9.358626
2024-02-03T06:11:58.733Z,9.358701
2024-02-03T06:12:58.718Z,9.358646
2024-02-03T06:13:58.717Z,9.358601
2024-02-03T06:14:58.700Z,9.358543
2024-02-03T06:15:58.747Z,9.358528
2024-02-03T06:16:58.654Z,9.358653
2024-02-03T06:17:58.773Z,9.358634
2024-02-03T06:18:59.739Z,9.358604
2024-02-03T06:19:58.726Z,9.358543
2024-02-03T06:20:58.603Z,9.358583
2024-02-03T06:21:58.650Z,9.358576
2024-02-03T06:22:58.620Z,9.358569
2024-02-03T06:23:58.593Z,9.358533
2024-02-03T06:24:58.658Z,9.358532
2024-02-03T06:25:58.588Z,9.358497
2024-02-03T06:26:58.574Z,9.358473
2024-02-03T06:27:58.640Z,9.358468
2024-02-03T06:28:58.545Z,9.358459
2024-02-03T06:29:58.531Z,9.358509
2024-02-03T06:30:58.533Z,9.358481
2024-02-03T06:31:58.512Z,9.358481
2024-02-03T06:32:59.628Z,9.358527
2024-02-03T06:33:58.620Z,9.358479
2024-02-03T06:34:58.599Z,9.358465
2024-02-03T06:35:58.482Z,9.358420
2024-02-03T06:36:58.483Z,9.358398
2024-02-03T06:37:58.450Z,9.358459
2024-02-03T06:38:58.449Z,9.358496
2024-02-03T06:39:58.455Z,9.358512
2024-02-03T06:40:58.415Z,9.358608
2024-02-03T06:41:58.410Z,9.358566
2024-02-03T06:42:58.443Z,9.358425
2024-02-03T06:43:58.384Z,9.358443
2024-02-03T06:44:58.379Z,9.358488
2024-02-03T06:45:58.439Z,9.358488
2024-02-03T06:46:58.343Z,9.358509
2024-02-03T06:47:58.504Z,9.358547
2024-02-03T06:48:58.393Z,9.358571
2024-02-03T06:49:58.448Z,9.358541
2024-02-03T06:50:58.298Z,9.358554
2024-02-03T06:51:58.366Z,9.358589
2024-02-03T06:52:58.348Z,9.358567
2024-02-03T06:53:58.314Z,9.358556
2024-02-03T06:54:58.290Z,9.358594
2024-02-03T06:55:58.260Z,9.358596
2024-02-03T06:56:58.271Z,9.358572
2024-02-03T06:57:58.301Z,9.358605
2024-02-03T06:58:58.219Z,9.358586
2024-02-03T06:59:58.227Z,9.358484
2024-02-03T07:00:59.419Z,9.358473
2024-02-03T07:01:58.220Z,9.358468
2024-02-03T07:02:58.203Z,9.358480
2024-02-03T07:03:58.368Z,9.358520
2024-02-03T07:04:58.193Z,9.358513
2024-02-03T07:05:58.232Z,9.358598
2024-02-03T07:06:58.214Z,9.358520
2024-02-03T07:07:58.110Z,9.358456
2024-02-03T07:08:58.151Z,9.358511
2024-02-03T07:09:58.160Z,9.358519
2024-02-03T07:10:58.088Z,9.358465
2024-02-03T07:12:04.084Z,9.358502
2024-02-03T07:12:59.156Z,9.358511
2024-02-03T07:13:58.123Z,9.358590
2024-02-03T07:14:58.068Z,9.358573
2024-02-03T07:15:58.142Z,9.358552
2024-02-03T07:16:58.009Z,9.358520
2024-02-03T07:17:58.124Z,9.358565
2024-02-03T07:18:58.056Z,9.358603
2024-02-03T07:19:58.095Z,9.358608
2024-02-03T07:20:57.968Z,9.358595
2024-02-03T07:21:57.992Z,9.358573
2024-02-03T07:22:57.995Z,9.358549
2024-02-03T07:23:58.011Z,9.358420
2024-02-03T07:24:57.971Z,9.358381
2024-02-03T07:25:57.961Z,9.358479
2024-02-03T07:26:57.981Z,9.358508
2024-02-03T07:27:57.981Z,9.358522
2024-02-03T07:28:57.890Z,9.358557
2024-02-03T07:29:57.924Z,9.358500
2024-02-03T07:30:58.046Z,9.358463
2024-02-03T07:31:57.861Z,9.358457
2024-02-03T07:32:57.924Z,9.358500
2024-02-03T07:33:57.908Z,9.358511
2024-02-03T07:34:57.946Z,9.358534
2024-02-03T07:35:57.856Z,9.358553
2024-02-03T07:36:57.974Z,9.358592
2024-02-03T07:37:57.823Z,9.358527
2024-02-03T07:38:57.798Z,9.358519
2024-02-03T07:39:57.862Z,9.358448
2024-02-03T07:40:57.773Z,9.358502
2024-02-03T07:41:57.795Z,9.358542
2024-02-03T07:42:57.849Z,9.358596
2024-02-03T07:43:57.776Z,9.358580
2024-02-03T07:44:57.731Z,9.358555
2024-02-03T07:45:57.812Z,9.358558
2024-02-03T07:46:57.739Z,9.358604
2024-02-03T07:47:58.183Z,9.358595
2024-02-03T07:48:58.420Z,9.358574
2024-02-03T07:49:57.876Z,9.358582
2024-02-03T07:50:57.703Z,9.358543
2024-02-03T07:52:02.247Z,9.358461
2024-02-03T07:52:59.697Z,9.358485
2024-02-03T07:53:57.728Z,9.358489
2024-02-03T07:54:57.808Z,9.358436
2024-02-03T07:55:57.712Z,9.358510
2024-02-03T07:56:57.700Z,9.358473
2024-02-03T07:57:57.659Z,9.358509
2024-02-03T07:58:57.626Z,9.358474
2024-02-03T07:59:57.602Z,9.358527
2024-02-03T08:00:57.626Z,9.358547
2024-02-03T08:01:57.602Z,9.358628
2024-02-03T08:02:57.568Z,9.358593
2024-02-03T08:03:57.617Z,9.358545
2024-02-03T08:04:57.693Z,9.358492
2024-02-03T08:05:57.597Z,9.358508
2024-02-03T08:06:58.716Z,9.358566
2024-02-03T08:07:57.511Z,9.358522
2024-02-03T08:08:57.524Z,9.358481
2024-02-03T08:09:57.506Z,9.358471
2024-02-03T08:10:57.462Z,9.358479
2024-02-03T08:11:57.531Z,9.358502
2024-02-03T08:12:57.514Z,9.358575
2024-02-03T08:13:57.464Z,9.358521
2024-02-03T08:14:57.509Z,9.358499
2024-02-03T08:15:57.467Z,9.358482
2024-02-03T08:16:57.403Z,9.358551
2024-02-03T08:17:57.439Z,9.358526
2024-02-03T08:18:57.533Z,9.358477
2024-02-03T08:19:57.373Z,9.358510
2024-02-03T08:20:57.424Z,9.358519
2024-02-03T08:21:57.390Z,9.358513
2024-02-03T08:22:57.342Z,9.358569
2024-02-03T08:23:57.339Z,9.358598
2024-02-03T08:24:58.366Z,9.358527
2024-02-03T08:25:57.337Z,9.358556
2024-02-03T08:26:57.291Z,9.358538
2024-02-03T08:27:57.363Z,9.358540
2024-02-03T08:28:57.290Z,9.358491
2024-02-03T08:29:57.288Z,9.358460
2024-02-03T08:30:57.303Z,9.358518
2024-02-03T08:31:57.251Z,9.358522
2024-02-03T08:32:57.399Z,9.358563
2024-02-03T08:33:57.463Z,9.358599
2024-02-03T08:35:58.847Z,9.358454
2024-02-03T08:36:57.200Z,9.358453
2024-02-03T08:37:57.229Z,9.358571
2024-02-03T08:38:57.177Z,9.358648
2024-02-03T08:39:57.206Z,9.358611
2024-02-03T08:40:57.159Z,9.358585
2024-02-03T08:41:57.146Z,9.358589
2024-02-03T08:42:57.254Z,9.358584
2024-02-03T08:43:57.102Z,9.358608
2024-02-03T08:44:57.114Z,9.358585
2024-02-03T08:45:57.180Z,9.358596
2024-02-03T08:46:57.113Z,9.358676
2024-02-03T08:47:57.174Z,9.358639
2024-02-03T08:48:57.243Z,9.358571
2024-02-03T08:49:57.077Z,9.358501
2024-02-03T08:50:57.035Z,9.358518
2024-02-03T08:51:57.230Z,9.358541
2024-02-03T08:52:57.028Z,9.358530
2024-02-03T08:53:57.008Z,9.358594
2024-02-03T08:54:57.033Z,9.358616
2024-02-03T08:55:57.003Z,9.358590
2024-02-03T08:56:57.007Z,9.358587
2024-02-03T08:57:57.047Z,9.358553
2024-02-03T08:58:57.003Z,9.358543
2024-02-03T08:59:57.034Z,9.358573
2024-02-03T09:00:57.106Z,9.358526
2024-02-03T09:01:56.963Z,9.358481
2024-02-03T09:02:57.021Z,9.358515
2024-02-03T09:03:56.960Z,9.358524
2024-02-03T09:04:56.884Z,9.358624
2024-02-03T09:05:56.911Z,9.358597
2024-02-03T09:06:56.899Z,9.358540
2024-02-03T09:07:56.861Z,9.358587
2024-02-03T09:08:56.884Z,9.358515
2024-02-03T09:09:58.863Z,9.358498
2024-02-03T09:10:56.829Z,9.358557
2024-02-03T09:11:56.842Z,9.358658
2024-02-03T09:12:56.875Z,9.358602
2024-02-03T09:13:56.832Z,9.358580
2024-02-03T09:14:56.764Z,9.358590
2024-02-03T09:15:57.932Z,9.358596
2024-02-03T09:16:57.852Z,9.358593
2024-02-03T09:17:56.861Z,9.358524
2024-02-03T09:18:56.864Z,9.358539
2024-02-03T09:19:56.888Z,9.358569
2024-02-03T09:20:56.758Z,9.358558
2024-02-03T09:21:57.342Z,9.358503
2024-02-03T09:22:56.763Z,9.358554
2024-02-03T09:23:57.714Z,9.358601
2024-02-03T09:24:56.743Z,9.358572
2024-02-03T09:25:56.811Z,9.358559
2024-02-03T09:26:56.729Z,9.358514
2024-02-03T09:27:56.787Z,9.358513
2024-02-03T09:28:56.754Z,9.358470
2024-02-03T09:29:56.647Z,9.358493
2024-02-03T09:30:56.723Z,9.358511
2024-02-03T09:31:58.909Z,9.358523
2024-02-03T09:32:57.640Z,9.358531
2024-02-03T09:33:57.727Z,9.358532
2024-02-03T09:34:56.563Z,9.358568
2024-02-03T09:35:56.618Z,9.358576
2024-02-03T09:37:59.708Z,9.358545
2024-02-03T09:38:57.534Z,9.358576
2024-02-03T09:39:56.650Z,9.358588
2024-02-03T09:40:57.522Z,9.358604
2024-02-03T09:41:56.543Z,9.358588
2024-02-03T09:42:56.569Z,9.358642
2024-02-03T09:43:56.545Z,9.358612
2024-02-03T09:44:56.483Z,9.358590
2024-02-03T09:45:56.506Z,9.358650
2024-02-03T09:46:56.519Z,9.358643
2024-02-03T09:47:56.636Z,9.358655
2024-02-03T09:48:56.557Z,9.358680
2024-02-03T09:49:56.466Z,9.358655
2024-02-03T09:50:56.418Z,9.358629
2024-02-03T09:51:56.470Z,9.358688
2024-02-03T09:52:56.457Z,9.358684
2024-02-03T09:53:56.407Z,9.358579
2024-02-03T09:54:56.465Z,9.358521
2024-02-03T09:55:56.418Z,9.358556
2024-02-03T09:56:56.383Z,9.358554
2024-02-03T09:57:56.426Z,9.358567
2024-02-03T09:58:56.393Z,9.358615
2024-02-03T09:59:56.374Z,9.358663
2024-02-03T10:00:56.493Z,9.358683
2024-02-03T10:01:56.306Z,9.358779
2024-02-03T10:02:56.358Z,9.358704
2024-02-03T10:03:56.381Z,9.358605
2024-02-03T10:04:56.341Z,9.358632
2024-02-03T10:05:56.289Z,9.358609
2024-02-03T10:06:56.296Z,9.358574
2024-02-03T10:07:56.280Z,9.358574
2024-02-03T10:08:56.248Z,9.358611
2024-02-03T10:10:57.323Z,9.358623
2024-02-03T10:11:56.305Z,9.358594
2024-02-03T10:12:56.282Z,9.358516
2024-02-03T10:13:56.183Z,9.358572
2024-02-03T10:14:56.192Z,9.358630
2024-02-03T10:15:56.238Z,9.358666
2024-02-03T10:16:56.185Z,9.358674
2024-02-03T10:17:56.193Z,9.358681
2024-02-03T10:18:56.205Z,9.358662
2024-02-03T10:19:56.229Z,9.358611
2024-02-03T10:20:56.179Z,9.358631
2024-02-03T10:21:56.250Z,9.358603
2024-02-03T10:22:56.108Z,9.358580
2024-02-03T10:23:56.087Z,9.358609
2024-02-03T10:24:56.170Z,9.358639
2024-02-03T10:25:56.080Z,9.358648
2024-02-03T10:26:56.045Z,9.358624
2024-02-03T10:27:56.103Z,9.358684
2024-02-03T10:28:56.021Z,9.358705
2024-02-03T10:29:56.089Z,9.358675
2024-02-03T10:30:57.905Z,9.358566
2024-02-03T10:31:56.043Z,9.358499
2024-02-03T10:32:56.009Z,9.358541
2024-02-03T10:33:56.175Z,9.358536
2024-02-03T10:34:56.483Z,9.358565
2024-02-03T10:35:55.970Z,9.358571
2024-02-03T10:36:55.964Z,9.358543
2024-02-03T10:37:56.031Z,9.358541
2024-02-03T10:38:55.939Z,9.358529
2024-02-03T10:39:56.022Z,9.358567
2024-02-03T10:40:55.900Z,9.358590
2024-02-03T10:41:55.899Z,9.358640
2024-02-03T10:42:56.888Z,9.358568
2024-02-03T10:43:55.871Z,9.358578
2024-02-03T10:44:55.882Z,9.358605
2024-02-03T10:45:56.039Z,9.358590
2024-02-03T10:46:55.832Z,9.358559
2024-02-03T10:47:55.966Z,9.358585
2024-02-03T10:48:55.910Z,9.358555
2024-02-03T10:49:55.980Z,9.358593
2024-02-03T10:50:55.826Z,9.358589
2024-02-03T10:51:55.828Z,9.358562
2024-02-03T10:52:55.761Z,9.358508
2024-02-03T10:53:55.772Z,9.358592
2024-02-03T10:54:55.936Z,9.358597
2024-02-03T10:55:55.778Z,9.358578
2024-02-03T10:56:55.762Z,9.358546
2024-02-03T10:57:55.761Z,9.358523
2024-02-03T10:58:57.697Z,9.358509
2024-02-03T10:59:55.705Z,9.358517
2024-02-03T11:00:56.884Z,9.358480
2024-02-03T11:01:55.703Z,9.358534
2024-02-03T11:02:55.693Z,9.358536
2024-02-03T11:03:55.805Z,9.358554
2024-02-03T11:04:56.422Z,9.358533
2024-02-03T11:05:55.692Z,9.358603
2024-02-03T11:06:55.719Z,9.358556
2024-02-03T11:07:55.723Z,9.358513
2024-02-03T11:08:55.768Z,9.358567
2024-02-03T11:09:55.701Z,9.358534
2024-02-03T11:10:55.564Z,9.358521
2024-02-03T11:11:55.705Z,9.358451
2024-02-03T11:12:55.578Z,9.358437
2024-02-03T11:13:55.575Z,9.358459
2024-02-03T11:14:55.552Z,9.358501
2024-02-03T11:15:55.599Z,9.358550
2024-02-03T11:16:56.916Z,9.358610
2024-02-03T11:17:55.639Z,9.358543
2024-02-03T11:18:55.631Z,9.358508
2024-02-03T11:19:55.636Z,9.358534
2024-02-03T11:20:55.542Z,9.358479
2024-02-03T11:21:55.516Z,9.358508
2024-02-03T11:22:56.208Z,9.358522
2024-02-03T11:23:55.447Z,9.358539
2024-02-03T11:25:27.766Z,9.358501
2024-02-03T11:25:55.456Z,9.358460
2024-02-03T11:26:55.456Z,9.358561
2024-02-03T11:27:55.563Z,9.358547
2024-02-03T11:28:57.024Z,9.358528
2024-02-03T11:29:55.397Z,9.358549
2024-02-03T11:30:55.470Z,9.358597
2024-02-03T11:31:55.358Z,9.358633
2024-02-03T11:32:55.465Z,9.358556
2024-02-03T11:33:55.421Z,9.358505
2024-02-03T11:34:55.958Z,9.358603
2024-02-03T11:35:55.322Z,9.358594
2024-02-03T11:36:55.351Z,9.358553
2024-02-03T11:37:55.358Z,9.358520
2024-02-03T11:38:55.362Z,9.358562
2024-02-03T11:39:55.330Z,9.358624
2024-02-03T11:40:55.774Z,9.358600
2024-02-03T11:41:55.308Z,9.358549
2024-02-03T11:42:55.284Z,9.358568
2024-02-03T11:43:55.221Z,9.358629
2024-02-03T11:44:55.231Z,9.358585
2024-02-03T11:45:55.262Z,9.358564
2024-02-03T11:46:55.727Z,9.358551